Time;durP1;ratioP1;P1;durP2;ratioP2;P2;SDS_P1;SDS_P2;PMS_P1;PMS_P2;Temp;Humidity;BMP_temperature;BMP_pressure;BME280_temperature;BME280_humidity;BME280_pressure;Samples;Min_cycle;Max_cycle;Signal;HPM_P1;HPM_P2
2022/07/13 00:00:06;;;;;;;7.57;5.57;;;;;;;;;;5128149;27;20103;-65
2022/07/13 00:02:32;;;;;;;5.65;5.05;;;;;;;;;;5117705;27;20112;-64
2022/07/13 00:04:58;;;;;;;9.32;5.68;;;;;;;;;;5113823;28;20055;-64
2022/07/13 00:07:24;;;;;;;8.13;6.35;;;;;;;;;;5109169;27;20062;-65
2022/07/13 00:09:50;;;;;;;6.63;6.03;;;;;;;;;;5111630;27;20035;-64
2022/07/13 00:12:16;;;;;;;8.27;6.70;;;;;;;;;;5114287;28;20046;-64
2022/07/13 00:14:42;;;;;;;6.95;5.65;;;;;;;;;;5103839;27;20027;-64
2022/07/13 00:17:08;;;;;;;7.13;6.05;;;;;;;;;;5094945;28;20044;-64
2022/07/13 00:19:34;;;;;;;6.95;6.20;;;;;;;;;;5111047;27;20032;-65
2022/07/13 00:22:00;;;;;;;7.65;6.60;;;;;;;;;;5114527;27;20027;-64
2022/07/13 00:24:26;;;;;;;8.38;6.70;;;;;;;;;;5094019;28;20402;-64
2022/07/13 00:26:52;;;;;;;7.28;6.57;;;;;;;;;;5101014;27;20070;-64
2022/07/13 00:29:18;;;;;;;8.77;6.50;;;;;;;;;;5107506;27;20062;-64
2022/07/13 00:31:46;;;;;;;7.38;6.47;;;;;;;;;;5108596;27;20035;-64
2022/07/13 00:34:13;;;;;;;6.80;6.10;;;;;;;;;;5100800;27;20043;-64
2022/07/13 00:36:39;;;;;;;7.30;6.63;;;;;;;;;;5114829;27;20035;-64
2022/07/13 00:39:05;;;;;;;8.05;6.28;;;;;;;;;;5112176;28;20050;-64
2022/07/13 00:41:31;;;;;;;8.32;7.40;;;;;;;;;;5111674;28;20130;-64
2022/07/13 00:44:09;;;;;;;9.07;7.50;;;;;;;;;;5104715;28;20043;-64
2022/07/13 00:46:36;;;;;;;8.80;7.18;;;;;;;;;;5106889;27;20489;-65
2022/07/13 00:49:03;;;;;;;6.55;5.95;;;;;;;;;;5098706;28;20081;-65
2022/07/13 00:51:29;;;;;;;7.70;6.90;;;;;;;;;;5113253;28;20290;-64
2022/07/13 00:53:55;;;;;;;9.77;6.95;;;;;;;;;;5094966;28;20114;-64
2022/07/13 00:56:22;;;;;;;8.15;7.32;;;;;;;;;;5117889;27;20043;-64
2022/07/13 00:58:48;;;;;;;8.45;7.35;;;;;;;;;;5111276;28;20043;-64
2022/07/13 01:01:14;;;;;;;7.97;7.18;;;;;;;;;;5110765;28;20149;-64
2022/07/13 01:03:40;;;;;;;9.30;8.20;;;;;;;;;;5111186;27;20036;-64
2022/07/13 01:06:08;;;;;;;9.98;8.02;;;;;;;;;;5111317;28;20473;-64
2022/07/13 01:08:34;;;;;;;9.70;8.68;;;;;;;;;;5100119;28;20505;-64
2022/07/13 01:11:00;;;;;;;9.52;8.52;;;;;;;;;;5111976;28;20114;-64
2022/07/13 01:13:26;;;;;;;10.18;8.38;;;;;;;;;;5112890;28;20093;-64
2022/07/13 01:15:52;;;;;;;10.52;8.73;;;;;;;;;;5110383;28;20656;-64
2022/07/13 01:18:19;;;;;;;11.13;9.88;;;;;;;;;;5108514;27;20046;-64
2022/07/13 01:20:45;;;;;;;10.18;8.88;;;;;;;;;;5110446;28;20114;-65
2022/07/13 01:23:11;;;;;;;9.60;8.60;;;;;;;;;;5095692;28;20074;-64
2022/07/13 01:25:38;;;;;;;10.18;9.18;;;;;;;;;;5111194;28;20119;-64
2022/07/13 01:28:04;;;;;;;12.07;9.95;;;;;;;;;;5096583;28;20040;-64
2022/07/13 01:30:30;;;;;;;10.88;9.10;;;;;;;;;;5109459;28;20043;-64
2022/07/13 01:32:56;;;;;;;11.48;10.20;;;;;;;;;;5097826;28;20036;-64
2022/07/13 01:35:23;;;;;;;10.93;9.80;;;;;;;;;;5104876;28;20606;-64
2022/07/13 01:37:50;;;;;;;10.75;9.70;;;;;;;;;;5118170;27;20028;-64
2022/07/13 01:40:17;;;;;;;15.07;10.38;;;;;;;;;;5110993;28;21484;-64
2022/07/13 01:42:44;;;;;;;10.88;9.75;;;;;;;;;;5082267;28;20044;-64
2022/07/13 01:45:11;;;;;;;11.18;10.00;;;;;;;;;;5108247;28;20058;-64
2022/07/13 01:47:37;;;;;;;12.55;10.65;;;;;;;;;;5117397;27;20046;-64
2022/07/13 01:50:03;;;;;;;12.45;9.60;;;;;;;;;;5109180;28;20035;-64
2022/07/13 01:52:29;;;;;;;10.77;9.20;;;;;;;;;;5101108;28;20040;-64
2022/07/13 01:54:55;;;;;;;11.82;9.63;;;;;;;;;;5100018;28;20046;-64
2022/07/13 01:57:21;;;;;;;11.93;9.40;;;;;;;;;;5112174;28;20524;-64
2022/07/13 01:59:47;;;;;;;11.00;9.13;;;;;;;;;;5108578;28;20110;-64
2022/07/13 02:02:13;;;;;;;9.95;8.85;;;;;;;;;;5107884;28;20050;-64
2022/07/13 02:04:40;;;;;;;10.85;9.55;;;;;;;;;;5103441;28;20046;-64
2022/07/13 02:07:06;;;;;;;9.50;8.60;;;;;;;;;;5104205;28;20081;-64
2022/07/13 02:09:32;;;;;;;11.00;9.70;;;;;;;;;;5112279;27;20048;-64
2022/07/13 02:11:59;;;;;;;10.52;8.85;;;;;;;;;;5103756;28;20494;-65
2022/07/13 02:14:25;;;;;;;9.45;8.45;;;;;;;;;;5110145;28;20078;-64
2022/07/13 02:16:51;;;;;;;10.25;8.82;;;;;;;;;;5106852;28;20065;-64
2022/07/13 02:19:17;;;;;;;9.27;8.38;;;;;;;;;;5112448;28;20035;-64
2022/07/13 02:21:43;;;;;;;9.88;8.88;;;;;;;;;;5111297;28;20038;-64
2022/07/13 02:24:09;;;;;;;9.35;8.10;;;;;;;;;;5104597;28;20036;-64
2022/07/13 02:26:35;;;;;;;11.00;8.68;;;;;;;;;;5101258;28;20036;-64
2022/07/13 02:29:01;;;;;;;9.85;8.85;;;;;;;;;;5109262;28;20036;-64
2022/07/13 02:31:27;;;;;;;10.35;8.82;;;;;;;;;;5109994;28;20031;-64
2022/07/13 02:33:53;;;;;;;9.25;8.30;;;;;;;;;;5088477;28;20046;-64
2022/07/13 02:36:19;;;;;;;9.82;8.82;;;;;;;;;;5110372;28;20032;-64
2022/07/13 02:38:45;;;;;;;9.20;8.05;;;;;;;;;;5113592;28;20039;-64
2022/07/13 02:41:11;;;;;;;10.52;8.63;;;;;;;;;;5104110;28;20070;-64
2022/07/13 02:43:37;;;;;;;11.90;8.60;;;;;;;;;;5110685;28;20036;-64
2022/07/13 02:46:03;;;;;;;8.23;7.38;;;;;;;;;;5110481;28;20173;-64
2022/07/13 02:48:29;;;;;;;9.82;7.85;;;;;;;;;;5110194;28;20122;-64
2022/07/13 02:50:55;;;;;;;9.38;7.95;;;;;;;;;;5102848;28;20119;-64
2022/07/13 02:53:21;;;;;;;9.07;7.97;;;;;;;;;;5112720;28;20039;-64
2022/07/13 02:55:47;;;;;;;10.90;9.00;;;;;;;;;;5110712;28;20071;-64
2022/07/13 02:58:13;;;;;;;12.18;8.70;;;;;;;;;;5112865;28;20506;-65
2022/07/13 03:00:39;;;;;;;13.25;8.63;;;;;;;;;;5108469;28;20078;-64
2022/07/13 03:03:05;;;;;;;10.35;9.23;;;;;;;;;;5110146;27;20063;-64
2022/07/13 03:05:32;;;;;;;10.57;9.07;;;;;;;;;;5113419;27;20047;-64
2022/07/13 03:07:58;;;;;;;9.77;8.70;;;;;;;;;;5110548;28;20051;-64
2022/07/13 03:10:24;;;;;;;10.98;8.82;;;;;;;;;;5105837;28;20393;-64
2022/07/13 03:12:50;;;;;;;12.52;8.82;;;;;;;;;;5114637;28;20050;-64
2022/07/13 03:15:16;;;;;;;11.73;9.48;;;;;;;;;;5115327;27;20040;-64
2022/07/13 03:17:42;;;;;;;11.10;9.38;;;;;;;;;;5105227;28;20040;-64
2022/07/13 03:20:09;;;;;;;11.35;8.80;;;;;;;;;;5106511;28;20064;-64
2022/07/13 03:22:35;;;;;;;12.60;9.18;;;;;;;;;;5111209;27;20035;-64
2022/07/13 03:25:01;;;;;;;12.60;9.90;;;;;;;;;;5113601;27;20857;-64
2022/07/13 03:27:27;;;;;;;11.52;9.20;;;;;;;;;;5118867;27;20246;-64
2022/07/13 03:29:53;;;;;;;11.10;9.65;;;;;;;;;;5113281;28;20028;-64
2022/07/13 03:32:19;;;;;;;12.05;10.63;;;;;;;;;;5095091;28;20036;-64
2022/07/13 03:34:45;;;;;;;12.60;9.50;;;;;;;;;;5112830;28;20035;-64
2022/07/13 03:37:11;;;;;;;11.70;9.65;;;;;;;;;;5114888;27;20381;-64
2022/07/13 03:39:38;;;;;;;11.00;8.90;;;;;;;;;;5109521;27;20036;-64
2022/07/13 03:42:04;;;;;;;10.80;9.35;;;;;;;;;;5109498;27;20489;-64
2022/07/13 03:44:30;;;;;;;12.65;10.63;;;;;;;;;;5110997;28;20047;-64
2022/07/13 03:46:56;;;;;;;15.40;10.43;;;;;;;;;;5097604;28;20047;-64
2022/07/13 03:49:22;;;;;;;12.55;10.38;;;;;;;;;;5113127;28;20507;-65
2022/07/13 03:51:48;;;;;;;11.27;10.07;;;;;;;;;;5115531;27;20315;-65
2022/07/13 03:54:14;;;;;;;11.93;10.38;;;;;;;;;;5112911;27;20322;-64
2022/07/13 03:56:40;;;;;;;12.75;10.95;;;;;;;;;;5114629;27;20392;-64
2022/07/13 03:59:06;;;;;;;13.00;10.80;;;;;;;;;;5113382;28;20429;-64
2022/07/13 04:01:32;;;;;;;14.00;10.82;;;;;;;;;;5104916;27;20035;-64
2022/07/13 04:03:59;;;;;;;12.18;9.77;;;;;;;;;;5104531;27;20039;-64
2022/07/13 04:06:25;;;;;;;11.65;9.75;;;;;;;;;;5091884;28;20312;-64
2022/07/13 04:08:51;;;;;;;11.35;10.05;;;;;;;;;;5105645;27;20036;-65
2022/07/13 04:11:18;;;;;;;13.00;10.80;;;;;;;;;;5112522;27;20450;-65
2022/07/13 04:13:44;;;;;;;14.02;10.38;;;;;;;;;;5114892;27;20036;-64
2022/07/13 04:16:10;;;;;;;11.57;9.60;;;;;;;;;;5105216;28;20062;-64
2022/07/13 04:18:36;;;;;;;14.63;10.40;;;;;;;;;;5112278;27;20118;-64
2022/07/13 04:21:03;;;;;;;12.57;10.18;;;;;;;;;;5113664;27;20039;-64
2022/07/13 04:23:30;;;;;;;12.20;9.55;;;;;;;;;;5122445;27;20031;-64
2022/07/13 04:25:57;;;;;;;14.75;9.70;;;;;;;;;;5110730;27;20035;-64
2022/07/13 04:28:23;;;;;;;12.40;9.70;;;;;;;;;;5113674;27;20399;-64
2022/07/13 04:30:50;;;;;;;11.05;9.80;;;;;;;;;;5113753;27;20119;-64
2022/07/13 04:33:16;;;;;;;11.13;9.27;;;;;;;;;;5112580;28;20120;-64
2022/07/13 04:35:42;;;;;;;13.82;9.88;;;;;;;;;;5112850;27;20035;-64
2022/07/13 04:38:08;;;;;;;11.25;10.07;;;;;;;;;;5112440;27;20040;-64
2022/07/13 04:40:34;;;;;;;12.98;9.75;;;;;;;;;;5113614;27;20036;-64
2022/07/13 04:43:00;;;;;;;11.70;9.60;;;;;;;;;;5115176;27;20481;-64
2022/07/13 04:45:26;;;;;;;10.25;9.15;;;;;;;;;;5112822;28;20039;-64
2022/07/13 04:47:52;;;;;;;13.70;10.48;;;;;;;;;;5110508;27;20035;-64
2022/07/13 04:50:19;;;;;;;12.15;9.07;;;;;;;;;;5111334;27;20051;-64
2022/07/13 04:52:45;;;;;;;10.07;8.98;;;;;;;;;;5115927;27;20051;-64
2022/07/13 04:55:11;;;;;;;9.88;8.60;;;;;;;;;;5104252;28;20040;-65
2022/07/13 04:57:37;;;;;;;11.70;8.77;;;;;;;;;;5112020;28;20046;-64
2022/07/13 05:00:04;;;;;;;10.13;8.32;;;;;;;;;;5111621;27;20508;-64
2022/07/13 05:02:30;;;;;;;10.52;8.27;;;;;;;;;;5112523;27;20107;-64
2022/07/13 05:04:56;;;;;;;10.93;8.35;;;;;;;;;;5110348;22;20023;-64
2022/07/13 05:07:22;;;;;;;9.90;7.95;;;;;;;;;;5077828;28;20106;-64
2022/07/13 05:09:48;;;;;;;9.43;7.53;;;;;;;;;;5067846;28;20486;-64
2022/07/13 05:12:14;;;;;;;15.48;7.85;;;;;;;;;;5070939;28;20068;-64
2022/07/13 05:14:40;;;;;;;9.32;6.88;;;;;;;;;;5070113;28;20067;-64
2022/07/13 05:17:06;;;;;;;8.85;7.20;;;;;;;;;;5062920;28;20473;-64
2022/07/13 05:19:33;;;;;;;7.53;6.70;;;;;;;;;;5072807;28;20060;-64
2022/07/13 05:21:59;;;;;;;7.63;6.60;;;;;;;;;;5080254;28;20067;-64
2022/07/13 05:24:25;;;;;;;10.93;7.68;;;;;;;;;;5071107;28;20067;-64
2022/07/13 05:26:51;;;;;;;7.47;6.72;;;;;;;;;;5071992;28;20439;-64
2022/07/13 05:29:17;;;;;;;8.07;6.63;;;;;;;;;;5062285;28;20469;-64
2022/07/13 05:31:43;;;;;;;10.05;7.70;;;;;;;;;;5061725;28;20044;-64
2022/07/13 05:34:09;;;;;;;8.77;7.38;;;;;;;;;;5071344;28;20134;-64
2022/07/13 05:36:36;;;;;;;10.07;6.60;;;;;;;;;;5076999;28;20492;-64
2022/07/13 05:39:02;;;;;;;8.05;7.00;;;;;;;;;;5069366;28;20498;-64
2022/07/13 05:41:29;;;;;;;8.98;6.97;;;;;;;;;;5072838;28;20036;-64
2022/07/13 05:43:55;;;;;;;8.90;6.45;;;;;;;;;;5068078;28;20124;-64
2022/07/13 05:46:21;;;;;;;8.00;6.65;;;;;;;;;;5069338;28;20482;-64
2022/07/13 05:48:47;;;;;;;8.80;6.95;;;;;;;;;;5073572;28;20049;-64
2022/07/13 05:51:13;;;;;;;8.07;6.57;;;;;;;;;;5071718;28;20040;-64
2022/07/13 05:53:39;;;;;;;9.32;6.60;;;;;;;;;;5069668;28;20039;-64
2022/07/13 05:56:05;;;;;;;7.13;5.90;;;;;;;;;;5065838;28;20048;-64
2022/07/13 05:58:31;;;;;;;7.43;6.05;;;;;;;;;;5067487;28;20047;-64
2022/07/13 06:00:57;;;;;;;8.00;5.97;;;;;;;;;;5070711;28;20040;-65
2022/07/13 06:03:23;;;;;;;6.13;5.53;;;;;;;;;;5069464;28;20043;-65
2022/07/13 06:05:49;;;;;;;6.38;5.47;;;;;;;;;;5071213;28;20033;-65
2022/07/13 06:08:15;;;;;;;11.85;4.95;;;;;;;;;;5071458;28;20045;-65
2022/07/13 06:10:41;;;;;;;6.18;4.38;;;;;;;;;;5069917;28;20040;-64
2022/07/13 06:13:07;;;;;;;6.50;4.57;;;;;;;;;;5068140;28;20729;-62
2022/07/13 06:15:33;;;;;;;5.50;4.30;;;;;;;;;;5050470;28;20044;-62
2022/07/13 06:17:59;;;;;;;6.20;4.70;;;;;;;;;;5069486;28;20076;-62
2022/07/13 06:20:25;;;;;;;7.38;5.20;;;;;;;;;;5070158;28;20051;-64
2022/07/13 06:23:09;;;;;;;5.47;4.57;;;;;;;;;;5070817;28;20047;-64
2022/07/13 06:25:35;;;;;;;6.03;4.60;;;;;;;;;;5070008;28;20040;-64
2022/07/13 06:28:01;;;;;;;5.28;4.78;;;;;;;;;;5071081;28;20046;-64
2022/07/13 06:30:27;;;;;;;7.38;4.72;;;;;;;;;;5050840;28;20094;-64
2022/07/13 06:32:53;;;;;;;5.45;4.40;;;;;;;;;;5069689;28;20044;-64
2022/07/13 06:35:19;;;;;;;9.05;4.35;;;;;;;;;;5073321;28;20037;-64
2022/07/13 06:37:45;;;;;;;4.85;4.35;;;;;;;;;;5074389;28;20050;-64
2022/07/13 06:40:12;;;;;;;7.07;4.32;;;;;;;;;;5072222;28;20115;-64
2022/07/13 06:42:38;;;;;;;6.70;4.57;;;;;;;;;;5074526;28;20093;-64
2022/07/13 06:45:04;;;;;;;4.85;4.30;;;;;;;;;;5059472;28;20033;-64
2022/07/13 06:47:30;;;;;;;6.55;4.45;;;;;;;;;;5070112;28;20076;-64
2022/07/13 06:49:56;;;;;;;8.20;4.15;;;;;;;;;;5068963;28;20051;-64
2022/07/13 06:52:22;;;;;;;6.13;4.47;;;;;;;;;;5068571;28;20029;-64
2022/07/13 06:54:48;;;;;;;6.05;4.10;;;;;;;;;;5071673;28;20486;-64
2022/07/13 06:57:14;;;;;;;6.63;3.90;;;;;;;;;;5070690;28;20044;-64
2022/07/13 06:59:40;;;;;;;5.25;4.55;;;;;;;;;;5070320;28;20041;-64
2022/07/13 07:02:06;;;;;;;7.90;4.70;;;;;;;;;;5071621;28;20029;-64
2022/07/13 07:04:32;;;;;;;4.40;4.00;;;;;;;;;;5071749;28;20045;-64
2022/07/13 07:06:58;;;;;;;5.80;4.15;;;;;;;;;;5070388;28;20040;-64
2022/07/13 07:09:24;;;;;;;5.50;4.60;;;;;;;;;;5070569;28;20508;-64
2022/07/13 07:11:50;;;;;;;6.50;4.28;;;;;;;;;;5068713;28;20094;-64
2022/07/13 07:14:16;;;;;;;7.25;4.47;;;;;;;;;;5067288;28;20048;-64
2022/07/13 07:16:42;;;;;;;5.25;4.20;;;;;;;;;;5072020;28;20175;-63
2022/07/13 07:19:09;;;;;;;7.95;4.80;;;;;;;;;;5068928;28;20558;-64
2022/07/13 07:21:35;;;;;;;6.07;5.40;;;;;;;;;;5067513;28;20060;-64
2022/07/13 07:24:01;;;;;;;8.23;4.75;;;;;;;;;;5072110;28;20040;-64
2022/07/13 07:26:30;;;;;;;7.57;4.72;;;;;;;;;;5068013;28;20048;-64
2022/07/13 07:28:56;;;;;;;8.05;5.22;;;;;;;;;;5069025;28;20408;-64
2022/07/13 07:31:22;;;;;;;6.28;4.78;;;;;;;;;;5070058;28;20044;-64
2022/07/13 07:33:48;;;;;;;8.20;5.25;;;;;;;;;;5075661;28;20051;-65
2022/07/13 07:36:16;;;;;;;6.85;5.22;;;;;;;;;;5069331;28;20120;-64
2022/07/13 07:38:42;;;;;;;6.57;5.45;;;;;;;;;;5057497;28;20490;-65
2022/07/13 07:41:10;;;;;;;7.25;5.55;;;;;;;;;;5067982;28;20054;-64
2022/07/13 07:43:36;;;;;;;10.75;5.53;;;;;;;;;;5065496;28;20041;-64
2022/07/13 07:46:02;;;;;;;9.60;5.53;;;;;;;;;;5067543;28;20044;-64
2022/07/13 07:48:28;;;;;;;6.88;4.97;;;;;;;;;;5074415;28;20048;-64
2022/07/13 07:50:54;;;;;;;10.02;5.68;;;;;;;;;;5063784;28;20505;-63
2022/07/13 07:53:20;;;;;;;6.25;4.80;;;;;;;;;;5069631;28;20375;-64
2022/07/13 07:55:47;;;;;;;8.82;5.20;;;;;;;;;;5065092;28;20432;-64
2022/07/13 07:58:13;;;;;;;6.75;5.00;;;;;;;;;;5069100;28;20040;-64
2022/07/13 08:00:40;;;;;;;7.70;5.55;;;;;;;;;;5072095;28;20047;-64
2022/07/13 08:03:06;;;;;;;7.35;5.95;;;;;;;;;;5071646;28;20032;-64
2022/07/13 08:05:32;;;;;;;7.80;6.00;;;;;;;;;;5068996;28;20040;-63
2022/07/13 08:07:58;;;;;;;11.40;6.95;;;;;;;;;;5065157;28;20090;-64
2022/07/13 08:10:25;;;;;;;8.23;6.07;;;;;;;;;;5065487;28;20567;-64
2022/07/13 08:12:51;;;;;;;9.88;5.80;;;;;;;;;;5077444;28;20036;-64
2022/07/13 08:15:17;;;;;;;12.30;6.32;;;;;;;;;;5076824;28;20097;-64
2022/07/13 08:17:43;;;;;;;9.27;6.47;;;;;;;;;;5069961;28;20045;-64
2022/07/13 08:20:11;;;;;;;10.05;6.60;;;;;;;;;;5067501;28;20028;-64
2022/07/13 08:22:38;;;;;;;11.73;6.30;;;;;;;;;;5069916;28;20119;-64
2022/07/13 08:25:04;;;;;;;8.15;6.32;;;;;;;;;;5071773;28;20040;-64
2022/07/13 08:27:30;;;;;;;8.50;6.20;;;;;;;;;;5070772;28;20044;-64
2022/07/13 08:29:56;;;;;;;7.30;6.45;;;;;;;;;;5077418;28;20044;-64
2022/07/13 08:32:22;;;;;;;8.40;6.28;;;;;;;;;;5070610;28;20043;-64
2022/07/13 08:40:21;;;;;;;8.27;5.30;;;;;;;;;;5071862;28;20383;-64
2022/07/13 08:42:47;;;;;;;7.22;5.10;;;;;;;;;;5070982;28;20029;-64
2022/07/13 08:45:13;;;;;;;8.60;5.80;;;;;;;;;;5071931;28;20033;-64
2022/07/13 08:47:40;;;;;;;7.40;6.40;;;;;;;;;;5070811;28;20063;-65
2022/07/13 08:50:07;;;;;;;8.60;6.20;;;;;;;;;;5069355;28;20599;-65
2022/07/13 08:52:38;;;;;;;7.25;5.47;;;;;;;;;;5077856;28;20040;-64
2022/07/13 08:55:05;;;;;;;8.75;5.93;;;;;;;;;;5075177;28;20063;-64
2022/07/13 08:57:35;;;;;;;9.57;5.00;;;;;;;;;;5069134;28;20486;-65
2022/07/13 09:00:04;;;;;;;6.28;5.43;;;;;;;;;;5066013;28;20067;-64
2022/07/13 09:02:30;;;;;;;9.15;6.63;;;;;;;;;;5071122;28;20099;-64
2022/07/13 09:04:56;;;;;;;10.15;6.28;;;;;;;;;;5068194;28;20075;-64
2022/07/13 09:07:22;;;;;;;8.10;6.18;;;;;;;;;;5065556;28;20068;-64
2022/07/13 09:09:53;;;;;;;8.20;6.00;;;;;;;;;;5069333;28;20035;-65
2022/07/13 09:12:23;;;;;;;9.30;5.97;;;;;;;;;;5070368;28;20126;-65
2022/07/13 09:14:53;;;;;;;10.07;6.80;;;;;;;;;;5071417;28;20040;-65
2022/07/13 09:17:34;;;;;;;7.20;5.53;;;;;;;;;;5067661;28;20397;-64
2022/07/13 09:20:04;;;;;;;6.97;5.70;;;;;;;;;;5065948;28;20145;-65
2022/07/13 09:22:30;;;;;;;8.33;5.53;;;;;;;;;;5061336;28;20044;-64
2022/07/13 09:24:56;;;;;;;8.52;5.28;;;;;;;;;;5051476;28;20037;-64
2022/07/13 09:27:22;;;;;;;8.48;5.50;;;;;;;;;;5064640;28;20085;-65
2022/07/13 09:29:49;;;;;;;6.35;4.65;;;;;;;;;;5070748;28;20029;-65
2022/07/13 09:32:15;;;;;;;8.00;5.38;;;;;;;;;;5071607;28;20040;-65
2022/07/13 09:34:44;;;;;;;9.82;5.38;;;;;;;;;;5071445;28;20045;-64
2022/07/13 09:37:11;;;;;;;8.88;5.78;;;;;;;;;;5053739;28;20390;-65
2022/07/13 09:39:55;;;;;;;9.38;5.32;;;;;;;;;;5071239;28;20085;-65
2022/07/13 09:42:32;;;;;;;8.77;4.82;;;;;;;;;;5071958;28;20119;-64
2022/07/13 09:47:48;;;;;;;7.00;4.50;;;;;;;;;;5065271;28;20044;-64
2022/07/13 09:50:17;;;;;;;6.70;5.40;;;;;;;;;;5070568;28;20044;-65
2022/07/13 09:52:43;;;;;;;7.05;5.28;;;;;;;;;;5072049;28;20048;-64
2022/07/13 09:55:11;;;;;;;8.88;4.82;;;;;;;;;;5071801;28;20045;-64
2022/07/13 09:57:41;;;;;;;9.07;4.80;;;;;;;;;;5070994;28;20494;-65
2022/07/13 10:00:11;;;;;;;5.88;4.35;;;;;;;;;;5070457;28;20032;-64
2022/07/13 10:02:37;;;;;;;5.32;4.70;;;;;;;;;;5065379;28;20036;-64
2022/07/13 10:05:04;;;;;;;7.88;4.95;;;;;;;;;;5071084;28;20041;-64
2022/07/13 10:07:30;;;;;;;7.00;4.22;;;;;;;;;;5071873;28;20075;-65
2022/07/13 10:09:57;;;;;;;6.13;4.07;;;;;;;;;;5071024;28;20101;-65
2022/07/13 10:12:23;;;;;;;4.20;3.67;;;;;;;;;;5071659;28;20044;-64
2022/07/13 10:14:50;;;;;;;5.50;3.88;;;;;;;;;;5069981;28;20119;-64
2022/07/13 10:17:17;;;;;;;6.10;4.40;;;;;;;;;;5070529;28;20489;-65
2022/07/13 10:19:44;;;;;;;6.50;3.70;;;;;;;;;;5071550;28;20033;-64
2022/07/13 10:22:21;;;;;;;5.65;3.80;;;;;;;;;;5071320;28;20059;-65
2022/07/13 10:24:52;;;;;;;4.60;3.75;;;;;;;;;;5071320;28;20543;-65
2022/07/13 10:27:20;;;;;;;6.18;3.72;;;;;;;;;;5071060;28;20049;-64
2022/07/13 10:29:50;;;;;;;4.82;4.03;;;;;;;;;;5068889;28;20040;-65
2022/07/13 10:32:17;;;;;;;5.47;3.65;;;;;;;;;;5070828;28;20078;-64
2022/07/13 10:35:09;;;;;;;6.78;3.20;;;;;;;;;;5053167;28;20048;-65
2022/07/13 10:37:54;;;;;;;5.82;3.53;;;;;;;;;;5067607;28;20059;-65
2022/07/13 10:40:21;;;;;;;5.38;3.30;;;;;;;;;;5070510;28;20422;-64
2022/07/13 10:43:00;;;;;;;7.10;4.28;;;;;;;;;;5068847;28;20029;-64
2022/07/13 10:45:32;;;;;;;5.07;3.60;;;;;;;;;;5052843;28;20040;-64
2022/07/13 10:47:59;;;;;;;5.35;3.50;;;;;;;;;;5070816;28;20398;-64
2022/07/13 10:50:26;;;;;;;5.15;3.38;;;;;;;;;;5053248;28;20484;-64
2022/07/13 10:52:53;;;;;;;6.72;2.95;;;;;;;;;;5049727;28;20124;-64
2022/07/13 10:55:19;;;;;;;4.95;2.92;;;;;;;;;;5070460;28;20405;-64
2022/07/13 10:57:46;;;;;;;5.25;3.40;;;;;;;;;;5070975;28;20040;-64
2022/07/13 11:00:22;;;;;;;5.78;3.38;;;;;;;;;;5071029;28;20090;-64
2022/07/13 11:02:50;;;;;;;5.20;3.30;;;;;;;;;;5070592;28;20525;-64
2022/07/13 11:05:20;;;;;;;3.85;2.97;;;;;;;;;;5088265;22;20028;-63
2022/07/13 11:07:47;;;;;;;4.90;2.77;;;;;;;;;;5085083;28;20041;-63
2022/07/13 11:10:21;;;;;;;4.13;2.97;;;;;;;;;;5086591;28;20447;-62
2022/07/13 11:13:12;;;;;;;5.10;3.03;;;;;;;;;;5090927;28;20111;-63
2022/07/13 11:15:50;;;;;;;4.95;2.97;;;;;;;;;;5090921;28;20051;-63
2022/07/13 11:18:23;;;;;;;4.13;2.58;;;;;;;;;;5070675;28;20094;-63
2022/07/13 11:21:01;;;;;;;5.93;3.70;;;;;;;;;;5074305;28;20493;-63
2022/07/13 11:26:34;;;;;;;5.22;2.42;;;;;;;;;;5094986;28;20044;-63
2022/07/13 11:29:22;;;;;;;2.35;2.08;;;;;;;;;;5094250;28;20050;-63
2022/07/13 11:31:54;;;;;;;3.35;2.10;;;;;;;;;;5094187;28;20101;-63
2022/07/13 11:34:21;;;;;;;4.20;2.30;;;;;;;;;;5092019;28;20054;-63
2022/07/13 11:36:47;;;;;;;3.45;2.00;;;;;;;;;;5087269;28;20485;-63
2022/07/13 11:39:23;;;;;;;2.10;1.90;;;;;;;;;;5094420;28;20036;-63
2022/07/13 11:41:51;;;;;;;2.35;1.90;;;;;;;;;;5094425;28;20097;-63
2022/07/13 11:44:17;;;;;;;2.95;1.88;;;;;;;;;;5094493;28;20036;-63
2022/07/13 11:46:46;;;;;;;3.92;1.98;;;;;;;;;;5093450;28;20077;-63
2022/07/13 11:49:12;;;;;;;2.90;1.77;;;;;;;;;;5084609;28;20044;-63
2022/07/13 11:51:38;;;;;;;4.43;2.10;;;;;;;;;;5093791;28;20047;-64
2022/07/13 11:54:10;;;;;;;1.90;1.60;;;;;;;;;;5093878;28;20058;-63
2022/07/13 11:56:49;;;;;;;3.17;1.70;;;;;;;;;;5093182;28;20046;-63
2022/07/13 11:59:16;;;;;;;2.25;1.85;;;;;;;;;;5090349;28;20501;-64
2022/07/13 12:01:52;;;;;;;3.05;1.70;;;;;;;;;;5092286;28;20063;-63
2022/07/13 12:04:22;;;;;;;2.47;1.95;;;;;;;;;;5092395;28;20136;-63
2022/07/13 12:06:48;;;;;;;3.13;2.10;;;;;;;;;;5088289;28;20032;-63
2022/07/13 12:09:17;;;;;;;1.95;1.60;;;;;;;;;;5073200;28;20044;-63
2022/07/13 12:11:43;;;;;;;2.80;1.70;;;;;;;;;;5081157;28;20043;-63
2022/07/13 12:14:11;;;;;;;2.75;1.80;;;;;;;;;;5092899;28;20131;-63
2022/07/13 12:16:37;;;;;;;2.60;1.60;;;;;;;;;;5085948;28;20047;-63
2022/07/13 12:19:09;;;;;;;3.70;1.70;;;;;;;;;;5093282;28;20118;-63
2022/07/13 12:21:35;;;;;;;2.92;1.80;;;;;;;;;;5091846;28;20040;-63
2022/07/13 12:24:02;;;;;;;1.85;1.75;;;;;;;;;;5077811;28;20036;-63
2022/07/13 12:26:29;;;;;;;3.72;1.80;;;;;;;;;;5072738;28;20037;-63
2022/07/13 12:28:55;;;;;;;2.08;1.60;;;;;;;;;;5085357;28;20522;-63
2022/07/13 12:31:22;;;;;;;2.70;1.85;;;;;;;;;;5091063;28;20120;-63
2022/07/13 12:33:52;;;;;;;2.45;1.80;;;;;;;;;;5091053;28;20038;-63
2022/07/13 12:36:20;;;;;;;2.78;1.65;;;;;;;;;;5083266;28;20455;-63
2022/07/13 12:38:56;;;;;;;2.97;1.88;;;;;;;;;;5072472;28;20051;-63
2022/07/13 12:41:27;;;;;;;2.90;2.05;;;;;;;;;;5071906;28;20052;-63
2022/07/13 12:43:56;;;;;;;3.33;1.80;;;;;;;;;;5091708;28;20493;-63
2022/07/13 12:46:23;;;;;;;2.38;2.00;;;;;;;;;;5083472;28;20415;-63
2022/07/13 12:48:58;;;;;;;4.10;1.98;;;;;;;;;;5092602;28;20036;-63
2022/07/13 12:51:24;;;;;;;4.35;2.30;;;;;;;;;;5092984;28;20382;-63
2022/07/13 12:53:58;;;;;;;4.25;1.95;;;;;;;;;;5092797;28;20043;-63
2022/07/13 12:56:28;;;;;;;4.82;2.20;;;;;;;;;;5092846;28;20040;-63
2022/07/13 12:58:55;;;;;;;2.60;2.10;;;;;;;;;;5092878;28;20067;-63
2022/07/13 13:01:28;;;;;;;2.40;2.20;;;;;;;;;;5091558;28;20032;-62
2022/07/13 13:03:54;;;;;;;4.28;2.03;;;;;;;;;;5077810;28;20444;-63
2022/07/13 13:06:20;;;;;;;3.53;2.25;;;;;;;;;;5072474;28;20040;-63
2022/07/13 13:08:46;;;;;;;2.80;2.20;;;;;;;;;;5072143;28;20454;-62
2022/07/13 13:11:12;;;;;;;2.63;2.30;;;;;;;;;;5079476;28;20050;-63
2022/07/13 13:13:38;;;;;;;4.95;2.35;;;;;;;;;;5091536;28;20036;-63
2022/07/13 13:16:04;;;;;;;3.58;2.65;;;;;;;;;;5083845;28;20040;-63
2022/07/13 13:18:30;;;;;;;3.28;2.25;;;;;;;;;;5091781;28;20046;-63
2022/07/13 13:20:56;;;;;;;2.88;2.25;;;;;;;;;;5092863;28;20127;-63
2022/07/13 13:23:22;;;;;;;4.15;2.53;;;;;;;;;;5088680;28;20108;-63
2022/07/13 13:25:48;;;;;;;2.63;2.40;;;;;;;;;;5085107;28;20085;-63
2022/07/13 13:28:14;;;;;;;4.95;2.53;;;;;;;;;;5092232;28;20039;-63
2022/07/13 13:30:46;;;;;;;2.83;2.35;;;;;;;;;;5092357;28;20142;-62
2022/07/13 13:33:13;;;;;;;4.25;2.75;;;;;;;;;;5091845;28;20505;-63
2022/07/13 13:35:39;;;;;;;5.78;2.40;;;;;;;;;;5092469;28;20324;-63
2022/07/13 13:38:06;;;;;;;6.40;2.58;;;;;;;;;;5090366;28;20036;-63
2022/07/13 13:40:33;;;;;;;4.60;2.53;;;;;;;;;;5080258;28;20115;-63
2022/07/13 13:42:59;;;;;;;4.65;2.53;;;;;;;;;;5071643;28;20510;-63
2022/07/13 13:45:25;;;;;;;3.78;2.60;;;;;;;;;;5070892;28;20115;-63
2022/07/13 13:47:51;;;;;;;6.95;2.97;;;;;;;;;;5080816;28;20035;-63
2022/07/13 13:50:17;;;;;;;4.30;2.42;;;;;;;;;;5090040;28;20051;-63
2022/07/13 13:52:43;;;;;;;4.78;2.72;;;;;;;;;;5071707;28;20442;-63
2022/07/13 13:55:09;;;;;;;3.58;2.80;;;;;;;;;;5089124;28;20114;-63
2022/07/13 13:57:35;;;;;;;5.18;2.63;;;;;;;;;;5091973;28;20512;-64
2022/07/13 14:00:01;;;;;;;6.53;2.90;;;;;;;;;;5091293;28;20040;-63
2022/07/13 14:02:28;;;;;;;5.32;2.80;;;;;;;;;;5082589;28;20071;-63
2022/07/13 14:04:54;;;;;;;3.80;2.40;;;;;;;;;;5091828;28;20075;-63
2022/07/13 14:07:20;;;;;;;6.57;2.75;;;;;;;;;;5091599;28;20032;-63
2022/07/13 14:09:47;;;;;;;3.30;2.80;;;;;;;;;;5091094;28;20405;-63
2022/07/13 14:12:13;;;;;;;4.45;2.90;;;;;;;;;;5073938;28;20040;-63
2022/07/13 14:14:39;;;;;;;4.43;2.80;;;;;;;;;;5091708;28;20058;-63
2022/07/13 14:17:05;;;;;;;5.32;2.63;;;;;;;;;;5090032;28;20179;-63
2022/07/13 14:19:31;;;;;;;4.18;2.90;;;;;;;;;;5085457;28;20128;-63
2022/07/13 14:21:57;;;;;;;4.72;2.70;;;;;;;;;;5078100;28;20040;-63
2022/07/13 14:24:23;;;;;;;5.28;2.80;;;;;;;;;;5091394;28;20036;-63
2022/07/13 14:26:53;;;;;;;3.92;2.60;;;;;;;;;;5091621;28;20409;-63
2022/07/13 14:29:20;;;;;;;6.03;2.17;;;;;;;;;;5090881;28;20083;-63
2022/07/13 14:31:46;;;;;;;5.30;2.40;;;;;;;;;;5090982;28;20047;-63
2022/07/13 14:34:13;;;;;;;3.70;2.42;;;;;;;;;;5074202;28;20076;-63
2022/07/13 14:36:39;;;;;;;3.22;2.40;;;;;;;;;;5072078;28;20045;-63
2022/07/13 14:39:05;;;;;;;4.40;2.30;;;;;;;;;;5081281;28;20509;-63
2022/07/13 14:41:31;;;;;;;7.35;2.55;;;;;;;;;;5090649;28;20451;-63
2022/07/13 14:43:57;;;;;;;6.82;2.47;;;;;;;;;;5091120;28;20044;-63
2022/07/13 14:46:25;;;;;;;2.72;2.03;;;;;;;;;;5090158;28;20044;-63
2022/07/13 14:48:51;;;;;;;2.53;2.13;;;;;;;;;;5091040;28;20043;-63